Time;durP1;ratioP1;P1;durP2;ratioP2;P2;SDS_P1;SDS_P2;PMS_P1;PMS_P2;Temp;Humidity;BMP_temperature;BMP_pressure;BME280_temperature;BME280_humidity;BME280_pressure;Samples;Min_cycle;Max_cycle;Signal;HPM_P1;HPM_P2
2022/08/19 00:01:56;;;;;;;40.87;26.80;;;;;;;22.76;71.28;100872.69;4925267;28;125353;-81
2022/08/19 00:04:27;;;;;;;43.03;26.58;;;;;;;22.77;70.38;100874.94;4940225;28;122591;-81
2022/08/19 00:06:53;;;;;;;40.75;26.85;;;;;;;22.81;70.82;100874.63;4942880;28;122537;-80
2022/08/19 00:09:21;;;;;;;40.47;26.35;;;;;;;22.84;71.15;100887.56;4926085;28;123757;-80
2022/08/19 00:11:47;;;;;;;41.47;26.00;;;;;;;22.85;70.45;100883.50;4947846;28;123301;-80
2022/08/19 00:14:16;;;;;;;42.17;26.83;;;;;;;22.82;70.83;100885.31;4939472;28;123746;-81
2022/08/19 00:16:44;;;;;;;36.38;25.67;;;;;;;22.82;70.72;100884.56;4926595;28;122736;-81
2022/08/19 00:19:10;;;;;;;39.80;26.17;;;;;;;22.81;71.10;100885.81;4919532;28;124814;-81
2022/08/19 00:21:39;;;;;;;39.92;25.58;;;;;;;22.75;70.47;100868.38;4941916;28;125650;-81
2022/08/19 00:24:07;;;;;;;39.97;26.55;;;;;;;22.80;70.57;100878.72;4942154;28;122365;-81
2022/08/19 00:26:33;;;;;;;40.58;25.85;;;;;;;22.78;71.12;100864.50;4910124;28;122959;-81
2022/08/19 00:29:00;;;;;;;36.90;24.58;;;;;;;22.76;70.08;100867.84;4920697;28;122846;-81
2022/08/19 00:31:27;;;;;;;38.67;25.40;;;;;;;22.78;70.85;100865.28;4926616;28;122917;-81
2022/08/19 00:33:53;;;;;;;39.08;24.63;;;;;;;22.76;70.64;100872.69;4929564;28;124641;-81
2022/08/19 00:36:19;;;;;;;37.80;25.33;;;;;;;22.71;71.09;100873.50;4942518;28;122412;-81
2022/08/19 00:38:48;;;;;;;39.53;25.90;;;;;;;22.71;70.51;100873.50;4926974;28;122324;-81
2022/08/19 00:41:17;;;;;;;37.05;25.35;;;;;;;22.77;70.92;100871.41;4913374;28;125546;-81
2022/08/19 00:43:55;;;;;;;39.40;25.33;;;;;;;22.76;70.45;100872.69;4925877;28;122975;-82
2022/08/19 00:46:21;;;;;;;34.00;23.92;;;;;;;22.73;70.28;100857.72;4910177;28;123355;-80
2022/08/19 00:48:47;;;;;;;36.13;24.53;;;;;;;22.71;70.91;100853.91;4912605;28;125571;-81
2022/08/19 00:51:12;;;;;;;36.07;23.90;;;;;;;22.73;70.07;100859.75;4916464;28;122384;-81
2022/08/19 00:53:39;;;;;;;39.37;24.83;;;;;;;22.66;70.07;100859.06;4922624;28;124151;-81
2022/08/19 00:56:06;;;;;;;38.25;24.80;;;;;;;22.71;70.97;100868.66;4924867;28;122354;-81
2022/08/19 00:58:34;;;;;;;37.97;25.35;;;;;;;22.64;70.63;100864.44;4936723;28;124934;-81
2022/08/19 01:01:01;;;;;;;39.10;24.73;;;;;;;22.64;70.47;100866.47;4926371;28;122328;-81
2022/08/19 01:03:27;;;;;;;38.25;25.45;;;;;;;22.63;70.56;100865.72;4920383;28;121939;-81
2022/08/19 01:05:54;;;;;;;39.88;24.75;;;;;;;22.59;70.58;100854.09;4942075;28;122119;-80
2022/08/19 01:08:20;;;;;;;38.55;25.33;;;;;;;22.62;70.32;100852.28;4909548;28;125904;-81
2022/08/19 01:10:57;;;;;;;38.15;24.35;;;;;;;22.66;71.06;100859.06;4943429;28;122621;-81
2022/08/19 01:13:28;;;;;;;37.75;25.38;;;;;;;22.62;70.70;100853.03;4942440;28;122054;-80
2022/08/19 01:16:00;;;;;;;39.05;25.73;;;;;;;22.66;70.92;100858.31;4946589;28;122451;-81
2022/08/19 01:18:27;;;;;;;38.10;25.85;;;;;;;22.70;70.11;100869.19;4926183;28;122950;-81
2022/08/19 01:21:34;;;;;;;39.13;25.33;;;;;;;22.70;70.12;100861.56;4915205;28;123991;-81
2022/08/19 01:23:59;;;;;;;37.22;25.35;;;;;;;22.67;70.37;100859.81;4936471;28;124125;-81
2022/08/19 01:26:26;;;;;;;38.23;25.53;;;;;;;22.66;70.55;100853.47;4944556;28;122218;-81
2022/08/19 01:28:57;;;;;;;41.97;24.70;;;;;;;22.64;69.90;100861.66;4908427;28;125849;-81
2022/08/19 01:31:25;;;;;;;40.40;25.08;;;;;;;22.61;70.62;100856.38;4932324;28;123242;-81
2022/08/19 01:33:53;;;;;;;39.55;25.27;;;;;;;22.66;70.91;100853.47;4940567;28;122957;-81
2022/08/19 01:36:27;;;;;;;41.45;25.38;;;;;;;22.66;70.65;100858.31;4943731;28;122412;-81
2022/08/19 01:38:53;;;;;;;39.55;24.92;;;;;;;22.60;71.00;100849.25;4933727;28;122836;-81
2022/08/19 01:41:20;;;;;;;38.50;25.20;;;;;;;22.61;70.14;100856.38;4903983;28;125721;-81
2022/08/19 01:43:46;;;;;;;40.03;26.10;;;;;;;22.60;70.25;100844.44;4952002;28;122441;-81
2022/08/19 01:46:12;;;;;;;41.10;26.25;;;;;;;22.55;70.17;100850.84;4928981;28;124824;-82
2022/08/19 01:48:41;;;;;;;40.28;26.40;;;;;;;22.56;70.53;100849.56;4944892;28;122865;-81
2022/08/19 01:51:08;;;;;;;39.38;25.40;;;;;;;22.51;70.29;100856.00;4926104;28;122284;-81
2022/08/19 01:53:34;;;;;;;44.00;27.00;;;;;;;22.49;70.27;100850.19;4932228;28;122857;-81
2022/08/19 01:56:01;;;;;;;41.05;26.40;;;;;;;22.46;70.44;100848.44;4936171;28;123820;-81
2022/08/19 01:58:36;;;;;;;44.90;27.23;;;;;;;22.42;70.56;100844.44;4945179;28;122321;-81
2022/08/19 02:01:04;;;;;;;43.25;26.30;;;;;;;22.45;70.88;100849.72;4949685;28;126055;-81
2022/08/19 02:03:29;;;;;;;40.67;26.45;;;;;;;22.35;70.29;100840.97;4926401;28;122508;-81
2022/08/19 02:06:00;;;;;;;42.30;25.13;;;;;;;22.40;70.17;100847.75;4921088;28;125311;-80
2022/08/19 02:08:29;;;;;;;43.30;25.25;;;;;;;22.40;70.63;100850.56;4944925;28;123736;-81
2022/08/19 02:10:55;;;;;;;41.42;25.77;;;;;;;22.35;70.22;100845.81;4944995;28;122070;-81
2022/08/19 02:13:25;;;;;;;46.63;27.38;;;;;;;22.31;70.23;100856.53;4941416;28;123052;-81
2022/08/19 02:16:11;;;;;;;51.88;28.42;;;;;;;22.29;70.82;100850.72;4944336;28;123274;-80
2022/08/19 02:18:36;;;;;;;48.38;27.45;;;;;;;22.26;69.65;100848.97;4939131;28;121990;-81
2022/08/19 02:21:02;;;;;;;47.05;27.58;;;;;;;22.23;70.71;100847.97;4952491;28;122592;-81
2022/08/19 02:23:28;;;;;;;46.97;27.95;;;;;;;22.27;70.20;100851.25;4931895;28;125862;-81
2022/08/19 02:25:53;;;;;;;48.80;28.93;;;;;;;22.22;70.81;100840.88;4928842;28;122638;-81
2022/08/19 02:28:19;;;;;;;53.90;29.30;;;;;;;22.21;70.47;100842.16;4941920;28;123672;-81
2022/08/19 02:30:47;;;;;;;56.33;30.00;;;;;;;22.20;70.55;100846.25;4928167;28;122395;-81
2022/08/19 02:33:12;;;;;;;57.67;29.70;;;;;;;22.21;70.65;100847.00;4938949;28;122622;-80
2022/08/19 02:35:42;;;;;;;50.97;28.98;;;;;;;22.18;71.03;100832.03;4939017;28;124005;-80
2022/08/19 02:38:26;;;;;;;55.70;29.40;;;;;;;22.24;69.71;100840.34;4914537;28;122703;-81
2022/08/19 02:40:59;;;;;;;59.50;30.30;;;;;;;22.22;70.14;100843.66;4928047;28;122921;-81
2022/08/19 02:43:26;;;;;;;56.30;29.98;;;;;;;22.19;70.63;100841.19;4940570;28;123831;-81
2022/08/19 02:45:52;;;;;;;62.17;30.65;;;;;;;22.14;70.53;100836.44;4934036;28;122969;-81
2022/08/19 02:48:22;;;;;;;59.30;30.30;;;;;;;22.10;71.00;100833.94;4942176;28;122246;-81
2022/08/19 02:50:54;;;;;;;56.20;30.75;;;;;;;22.14;70.87;100837.19;4908324;28;122019;-81
2022/08/19 02:53:23;;;;;;;57.67;30.47;;;;;;;22.16;70.46;100839.44;4927737;28;122612;-81
2022/08/19 02:55:49;;;;;;;64.15;31.52;;;;;;;22.16;70.71;100831.06;4943085;28;122919;-81
2022/08/19 02:58:16;;;;;;;57.43;31.43;;;;;;;22.12;70.61;100827.81;4933173;28;122031;-81
2022/08/19 03:00:44;;;;;;;60.47;30.73;;;;;;;22.13;70.27;100829.31;4939307;28;122466;-81
2022/08/19 03:03:10;;;;;;;64.93;31.75;;;;;;;22.10;70.14;100825.56;4927785;28;123393;-81
2022/08/19 03:05:36;;;;;;;67.33;30.53;;;;;;;22.04;70.90;100834.00;4911535;28;121940;-81
2022/08/19 03:08:03;;;;;;;64.13;31.77;;;;;;;22.01;71.12;100843.41;4939283;28;122338;-81
2022/08/19 03:10:28;;;;;;;63.87;30.90;;;;;;;21.98;70.68;100827.69;4911842;28;122022;-81
2022/08/19 03:12:54;;;;;;;62.20;30.80;;;;;;;21.98;70.62;100835.31;4912304;28;124079;-81
2022/08/19 03:15:20;;;;;;;64.33;31.03;;;;;;;22.01;70.79;100831.50;4910674;28;125294;-81
2022/08/19 03:17:45;;;;;;;72.03;32.10;;;;;;;21.99;71.04;100823.63;4908944;28;122119;-81
2022/08/19 03:20:11;;;;;;;71.18;32.63;;;;;;;22.02;71.16;100824.63;4918216;28;125033;-81
2022/08/19 03:22:39;;;;;;;65.57;31.75;;;;;;;22.01;71.04;100828.69;4952394;28;122811;-80
2022/08/19 03:25:05;;;;;;;72.05;32.17;;;;;;;22.05;70.98;100829.94;4923134;28;122576;-81
2022/08/19 03:27:30;;;;;;;67.80;31.70;;;;;;;21.98;70.88;100824.91;4963574;28;124455;-81
2022/08/19 03:29:56;;;;;;;68.25;31.50;;;;;;;22.02;70.68;100830.97;4910020;28;124079;-81
2022/08/19 03:32:22;;;;;;;70.53;32.83;;;;;;;22.08;70.65;100838.53;4943436;28;122782;-80
2022/08/19 03:34:48;;;;;;;65.73;30.60;;;;;;;22.10;70.73;100838.78;4945939;28;122982;-80
2022/08/19 03:37:14;;;;;;;67.03;32.42;;;;;;;22.00;71.05;100818.78;4907517;28;122239;-81
2022/08/19 03:39:41;;;;;;;65.03;32.22;;;;;;;22.10;70.74;100830.38;4932190;28;122520;-80
2022/08/19 03:42:08;;;;;;;75.90;32.50;;;;;;;22.12;70.99;100825.78;4938100;28;123047;-81
2022/08/19 03:44:37;;;;;;;62.78;31.80;;;;;;;22.18;70.38;100828.50;4944617;28;122305;-81
2022/08/19 03:47:03;;;;;;;68.93;32.63;;;;;;;22.19;70.71;100830.00;4943534;28;123531;-81
2022/08/19 03:49:32;;;;;;;64.97;31.17;;;;;;;22.19;70.26;100827.97;4907001;28;125135;-81
2022/08/19 03:52:01;;;;;;;63.95;32.63;;;;;;;22.19;70.47;100833.56;4933252;28;123398;-81
2022/08/19 03:54:28;;;;;;;65.25;32.40;;;;;;;22.15;70.48;100818.38;4930628;28;122820;-81
2022/08/19 03:56:56;;;;;;;67.38;32.33;;;;;;;22.17;70.43;100813.03;4934426;28;122505;-81
2022/08/19 03:59:25;;;;;;;62.57;31.17;;;;;;;22.21;70.70;100819.06;4927571;28;124379;-80
2022/08/19 04:02:00;;;;;;;67.28;31.67;;;;;;;22.21;70.67;100810.69;4933370;28;123586;-81
2022/08/19 04:04:46;;;;;;;66.07;31.40;;;;;;;22.19;70.20;100807.66;4903364;28;122421;-81
2022/08/19 04:07:21;;;;;;;64.57;32.03;;;;;;;22.17;71.03;100807.44;4919298;28;125365;-81
2022/08/19 04:09:47;;;;;;;67.47;33.47;;;;;;;22.17;70.30;100818.59;4922378;28;123729;-81
2022/08/19 04:12:14;;;;;;;66.93;33.87;;;;;;;22.17;71.22;100824.94;4942034;28;123301;-81
2022/08/19 04:14:46;;;;;;;66.60;32.45;;;;;;;22.16;70.32;100828.28;4941761;28;122282;-81
2022/08/19 04:17:13;;;;;;;69.30;31.77;;;;;;;22.17;70.30;100827.75;4909835;28;121907;-81
2022/08/19 04:19:40;;;;;;;68.93;32.22;;;;;;;22.14;69.91;100828.81;4942092;28;124892;-81
2022/08/19 04:22:26;;;;;;;66.32;32.28;;;;;;;22.18;70.00;100839.66;4919932;28;123436;-81
2022/08/19 04:24:51;;;;;;;66.07;31.95;;;;;;;22.11;70.95;100832.66;4925581;28;122265;-81
2022/08/19 04:27:17;;;;;;;68.60;31.77;;;;;;;22.14;70.65;100831.59;4924854;28;122813;-81
2022/08/19 04:29:43;;;;;;;62.93;31.73;;;;;;;22.16;70.71;100831.06;4937360;28;126215;-80
2022/08/19 04:32:08;;;;;;;72.20;32.97;;;;;;;22.17;70.89;100840.97;4942018;28;123412;-81
2022/08/19 04:34:34;;;;;;;64.47;32.50;;;;;;;22.17;70.59;100840.97;4937240;28;124312;-81
2022/08/19 04:36:59;;;;;;;66.00;32.78;;;;;;;22.18;71.17;100853.63;4915612;28;122879;-80
2022/08/19 04:44:59;;;;;;;66.27;32.60;;;;;;;22.14;70.63;100872.75;4940653;28;122633;-83
2022/08/19 04:47:24;;;;;;;68.70;34.50;;;;;;;22.14;71.13;100870.69;4892270;28;124366;-83
2022/08/19 04:49:50;;;;;;;68.60;33.20;;;;;;;22.15;70.58;100871.47;4940862;28;122462;-83
2022/08/19 04:52:42;;;;;;;65.47;32.67;;;;;;;22.15;70.47;100883.38;4903463;28;123039;-82
2022/08/19 04:55:10;;;;;;;64.47;32.78;;;;;;;22.17;70.75;100880.06;4912640;28;123048;-82
2022/08/19 04:57:39;;;;;;;64.85;33.22;;;;;;;22.16;71.16;100889.72;4910762;28;122757;-83
2022/08/19 05:00:05;;;;;;;67.13;34.05;;;;;;;22.17;71.01;100880.06;4925526;28;122968;-82
2022/08/19 05:02:31;;;;;;;67.03;33.63;;;;;;;22.15;70.42;100883.38;4928607;28;122494;-83
2022/08/19 05:05:00;;;;;;;68.03;33.90;;;;;;;22.18;70.92;100898.34;4910618;28;122252;-82
2022/08/19 05:07:27;;;;;;;66.10;33.20;;;;;;;22.14;70.08;100901.44;4921726;28;125444;-83
2022/08/19 05:09:52;;;;;;;67.32;34.25;;;;;;;22.13;70.97;100896.38;4932432;28;122421;-82
2022/08/19 05:12:19;;;;;;;75.68;36.30;;;;;;;22.17;70.54;100908.75;4929568;28;122924;-82
2022/08/19 05:14:47;;;;;;;70.00;34.97;;;;;;;22.13;70.68;100913.88;4916736;28;124655;-83
2022/08/19 05:17:16;;;;;;;70.83;36.23;;;;;;;22.20;70.88;100921.66;4951721;28;122906;-82
2022/08/19 05:22:32;;;;;;;68.32;35.70;;;;;;;22.27;70.92;100934.31;4926149;28;123717;-83
2022/08/19 05:24:58;;;;;;;62.97;33.20;;;;;;;22.28;70.90;100933.03;4942327;28;121876;-83
2022/08/19 05:27:24;;;;;;;66.37;34.37;;;;;;;22.27;70.75;100928.72;4900829;28;125259;-82
2022/08/19 05:29:50;;;;;;;66.32;33.83;;;;;;;22.31;70.97;100923.59;4941488;28;122442;-83
2022/08/19 05:32:16;;;;;;;68.33;34.67;;;;;;;22.35;70.69;100926.84;4912384;28;122227;-82
2022/08/19 05:34:41;;;;;;;68.20;34.80;;;;;;;22.33;70.26;100926.63;4936587;28;124882;-83
2022/08/19 05:37:08;;;;;;;64.18;32.95;;;;;;;22.32;70.26;100925.09;4934017;28;123027;-83
2022/08/19 05:39:36;;;;;;;62.17;32.60;;;;;;;22.35;70.65;100930.38;4926314;28;122448;-83
2022/08/19 05:42:07;;;;;;;62.27;33.00;;;;;;;22.35;70.03;100929.63;4941840;28;123233;-82
2022/08/19 05:44:36;;;;;;;69.18;35.78;;;;;;;22.33;70.73;100921.03;4937605;28;122413;-83
2022/08/19 05:47:05;;;;;;;65.25;35.28;;;;;;;22.31;70.51;100929.94;4942707;28;122105;-83
2022/08/19 05:49:33;;;;;;;64.07;34.38;;;;;;;22.35;70.70;100924.81;4928699;28;125023;-83
2022/08/19 05:52:03;;;;;;;62.30;33.57;;;;;;;22.40;70.37;100939.22;4944837;28;123910;-83
2022/08/19 05:54:29;;;;;;;65.15;33.80;;;;;;;22.40;70.74;100926.00;4908096;28;123059;-83
2022/08/19 05:56:55;;;;;;;59.47;33.27;;;;;;;22.43;70.10;100924.94;4936920;28;122735;-82
2022/08/19 05:59:21;;;;;;;57.17;31.17;;;;;;;22.42;69.91;100912.25;4901518;28;123024;-82
2022/08/19 06:01:52;;;;;;;60.85;32.25;;;;;;;22.49;70.57;100922.09;4932872;28;124428;-82
2022/08/19 06:04:19;;;;;;;60.08;34.30;;;;;;;22.46;69.87;100912.72;4927990;28;122956;-82
2022/08/19 06:06:47;;;;;;;64.15;34.83;;;;;;;22.51;69.98;100928.69;4910328;28;124692;-83
2022/08/19 06:09:13;;;;;;;62.00;33.72;;;;;;;22.48;69.95;100921.34;4913493;28;125328;-82
2022/08/19 06:11:43;;;;;;;62.05;33.97;;;;;;;22.50;70.28;100927.16;4945440;28;122327;-81
2022/08/19 06:14:25;;;;;;;61.40;33.80;;;;;;;22.52;69.82;100927.41;4944961;28;122337;-81
2022/08/19 06:16:52;;;;;;;63.92;34.25;;;;;;;22.57;70.11;100925.81;4931872;28;122442;-81
2022/08/19 06:19:20;;;;;;;57.53;32.30;;;;;;;22.50;70.11;100929.97;4926551;28;122740;-82
2022/08/19 06:21:48;;;;;;;59.65;34.65;;;;;;;22.57;69.88;100934.94;4942026;28;125091;-81
2022/08/19 06:24:17;;;;;;;61.55;35.10;;;;;;;22.60;69.75;100941.53;4947879;28;122512;-82
2022/08/19 06:26:46;;;;;;;60.63;35.08;;;;;;;22.60;70.15;100931.09;4922646;28;123270;-82
2022/08/19 06:29:14;;;;;;;58.60;33.83;;;;;;;22.60;69.88;100938.72;4905200;28;124485;-82
2022/08/19 06:31:45;;;;;;;57.73;34.53;;;;;;;22.58;69.99;100936.47;4916228;28;122596;-82
2022/08/19 06:34:32;;;;;;;53.58;33.85;;;;;;;22.57;69.43;100934.94;4916300;28;122473;-82
2022/08/19 06:37:03;;;;;;;58.70;34.70;;;;;;;22.54;70.16;100930.41;4899623;28;125299;-82
2022/08/19 06:39:32;;;;;;;56.20;34.83;;;;;;;22.58;70.18;100936.47;4938102;28;123051;-82
2022/08/19 06:42:01;;;;;;;60.03;34.67;;;;;;;22.60;69.88;100931.09;4903046;28;125111;-82
2022/08/19 06:44:34;;;;;;;61.07;35.13;;;;;;;22.63;70.69;100924.44;4931035;28;122761;-82
2022/08/19 06:47:04;;;;;;;60.45;35.08;;;;;;;22.63;70.00;100930.03;4940969;28;123953;-82
2022/08/19 06:49:30;;;;;;;63.35;34.97;;;;;;;22.66;70.22;100925.41;4936336;28;122692;-82
2022/08/19 06:51:58;;;;;;;56.63;34.80;;;;;;;22.67;70.52;100926.94;4937624;28;121989;-82
2022/08/19 06:54:24;;;;;;;61.13;35.90;;;;;;;22.63;70.52;100916.06;4937751;28;123247;-82
2022/08/19 06:56:50;;;;;;;59.67;35.05;;;;;;;22.66;70.04;100920.56;4934569;28;123005;-81
2022/08/19 06:59:22;;;;;;;58.27;35.20;;;;;;;22.70;70.63;100923.06;4909403;28;122880;-82
2022/08/19 07:01:54;;;;;;;61.80;35.83;;;;;;;22.74;70.41;100914.41;4917488;28;123695;-82
2022/08/19 07:04:23;;;;;;;57.88;35.67;;;;;;;22.78;69.76;100920.44;4917393;28;122806;-82
2022/08/19 07:06:50;;;;;;;59.08;36.78;;;;;;;22.78;69.80;100921.19;4912878;28;122280;-82
2022/08/19 07:09:17;;;;;;;64.97;35.80;;;;;;;22.86;70.73;100932.56;4939261;28;125152;-81
2022/08/19 07:11:46;;;;;;;61.70;36.00;;;;;;;22.88;70.28;100941.16;4933900;28;122813;-81
2022/08/19 07:14:12;;;;;;;62.92;37.13;;;;;;;22.90;69.95;100935.78;4924331;28;124312;-80
2022/08/19 07:16:37;;;;;;;63.10;36.78;;;;;;;22.87;70.35;100936.84;4899157;28;123821;-81
2022/08/19 07:19:03;;;;;;;63.78;37.88;;;;;;;22.93;69.64;100940.31;4932442;28;122301;-80
2022/08/19 07:21:29;;;;;;;59.10;35.60;;;;;;;22.93;69.79;100934.72;4937902;28;122821;-81
2022/08/19 07:23:59;;;;;;;60.80;36.97;;;;;;;22.98;69.87;100931.13;4902818;28;125792;-81
2022/08/19 07:26:31;;;;;;;59.40;36.22;;;;;;;23.06;70.13;100932.00;4918490;28;123179;-81
2022/08/19 07:28:58;;;;;;;62.70;37.35;;;;;;;23.16;69.86;100930.31;4928376;28;123146;-81
2022/08/19 07:31:26;;;;;;;58.00;37.50;;;;;;;23.25;69.83;100926.38;4943582;28;122445;-80
2022/08/19 07:33:55;;;;;;;63.72;37.38;;;;;;;23.28;69.35;100928.84;4908411;28;124436;-81
2022/08/19 07:36:24;;;;;;;58.43;36.13;;;;;;;23.39;69.86;100943.94;4919834;28;124468;-81
2022/08/19 07:38:51;;;;;;;60.17;36.33;;;;;;;23.48;69.68;100940.75;4919354;28;124308;-81
2022/08/19 07:41:23;;;;;;;61.28;37.15;;;;;;;23.60;69.83;100938.53;4924107;28;124532;-81
2022/08/19 07:43:49;;;;;;;63.97;38.57;;;;;;;23.70;68.66;100950.84;4930555;28;124506;-81
2022/08/19 07:46:17;;;;;;;58.47;37.20;;;;;;;23.75;67.98;100950.75;4926560;28;122139;-81
2022/08/19 07:48:46;;;;;;;59.03;37.15;;;;;;;23.66;68.81;100933.59;4922012;28;122333;-81
2022/08/19 07:51:15;;;;;;;59.35;37.47;;;;;;;23.82;68.94;100957.75;4913027;28;123841;-81
2022/08/19 07:53:41;;;;;;;54.67;36.08;;;;;;;23.80;67.75;100955.47;4918187;28;122150;-81
2022/08/19 07:56:07;;;;;;;56.67;36.70;;;;;;;23.84;67.64;100961.53;4928397;28;124192;-80
2022/08/19 07:58:35;;;;;;;57.13;36.03;;;;;;;23.87;68.88;100963.25;4925529;28;122919;-81
2022/08/19 08:01:02;;;;;;;57.47;36.05;;;;;;;23.89;68.01;100962.69;4918377;28;125276;-81
2022/08/19 08:09:20;;;;;;;58.57;36.53;;;;;;;23.81;67.99;100976.59;4934774;28;122995;-81
2022/08/19 08:11:49;;;;;;;57.77;37.50;;;;;;;23.78;67.85;100976.91;4932006;28;122803;-81
2022/08/19 08:14:43;;;;;;;57.27;37.50;;;;;;;23.80;68.06;100977.13;4925870;28;122214;-81
2022/08/19 08:17:10;;;;;;;58.42;37.08;;;;;;;23.81;68.67;100978.66;4930684;28;122944;-81
2022/08/19 08:19:36;;;;;;;55.80;36.87;;;;;;;23.86;68.91;100974.97;4933985;28;123324;-81
2022/08/19 08:22:03;;;;;;;53.88;35.75;;;;;;;23.88;68.32;100978.00;4899943;28;124422;-81
2022/08/19 08:24:30;;;;;;;59.58;37.22;;;;;;;23.89;68.15;100979.50;4915100;28;123715;-81
2022/08/19 08:26:58;;;;;;;59.60;37.28;;;;;;;23.91;69.25;100984.59;4931666;28;123219;-80
2022/08/19 08:29:29;;;;;;;63.17;38.45;;;;;;;23.87;68.75;100966.03;4914270;28;124421;-81
2022/08/19 08:31:55;;;;;;;58.53;37.63;;;;;;;24.03;68.97;100977.50;4937545;28;123149;-80
2022/08/19 08:34:21;;;;;;;59.17;36.75;;;;;;;24.10;68.40;100976.84;4917162;28;123194;-81
2022/08/19 08:36:47;;;;;;;55.47;36.35;;;;;;;24.17;68.19;100984.63;4939644;28;122433;-81
2022/08/19 08:39:16;;;;;;;55.00;35.53;;;;;;;24.17;68.98;100976.22;4914908;28;122653;-81
2022/08/19 08:41:52;;;;;;;54.08;35.08;;;;;;;24.27;67.45;100980.09;4952014;28;123100;-81
2022/08/19 08:44:27;;;;;;;49.92;33.53;;;;;;;24.38;68.36;100981.97;4924585;28;122583;-81
2022/08/19 08:47:01;;;;;;;49.70;34.17;;;;;;;24.40;67.87;100960.50;4924929;28;122536;-81
2022/08/19 08:49:37;;;;;;;50.60;34.90;;;;;;;24.57;67.64;100974.16;4940203;28;123217;-81
2022/08/19 08:52:15;;;;;;;49.35;33.13;;;;;;;24.68;66.67;100973.94;4931969;28;122777;-81
2022/08/19 08:54:44;;;;;;;44.25;32.38;;;;;;;24.73;65.96;100969.50;4915420;28;122977;-81
2022/08/19 08:57:15;;;;;;;47.67;32.00;;;;;;;24.82;66.18;100965.47;4911236;28;125032;-81
2022/08/19 08:59:51;;;;;;;44.67;30.90;;;;;;;24.88;66.75;100974.53;4944246;28;125199;-81
2022/08/19 09:02:17;;;;;;;41.63;28.43;;;;;;;24.97;66.40;100974.81;4942778;28;122474;-81
2022/08/19 09:04:43;;;;;;;42.97;30.43;;;;;;;25.00;66.08;100975.81;4906419;28;125489;-81
2022/08/19 09:07:28;;;;;;;42.90;30.60;;;;;;;24.99;65.18;100974.31;4908528;28;122717;-81
2022/08/19 09:10:03;;;;;;;44.63;30.38;;;;;;;24.90;64.95;100978.31;4946566;28;122989;-81
2022/08/19 09:12:45;;;;;;;40.88;29.48;;;;;;;24.83;65.19;100978.94;4937392;28;122839;-81
2022/08/19 09:15:14;;;;;;;42.63;29.17;;;;;;;24.77;65.61;100986.75;4929136;28;122818;-81
2022/08/19 09:17:40;;;;;;;41.40;29.13;;;;;;;24.70;65.59;100976.19;4942974;28;122741;-81
2022/08/19 09:20:15;;;;;;;49.97;33.28;;;;;;;24.69;65.81;100980.28;4928465;28;126365;-81
2022/08/19 09:22:45;;;;;;;48.03;32.60;;;;;;;24.68;66.56;100995.63;4912901;28;123514;-80
2022/08/19 09:25:14;;;;;;;50.38;33.58;;;;;;;24.67;66.48;100980.09;4919391;28;124665;-80
2022/08/19 09:27:41;;;;;;;48.65;34.72;;;;;;;24.67;65.85;100994.88;4922329;28;122276;-81
2022/08/19 09:30:10;;;;;;;50.58;34.42;;;;;;;24.66;65.97;100992.59;4924462;28;122249;-80
2022/08/19 09:32:36;;;;;;;47.80;33.28;;;;;;;24.60;66.28;100980.72;4929218;28;122943;-80
2022/08/19 09:35:02;;;;;;;48.45;33.17;;;;;;;24.60;66.28;100994.75;4931160;28;122584;-80
2022/08/19 09:37:28;;;;;;;51.70;34.25;;;;;;;24.65;67.33;100991.09;4917038;28;124453;-80
2022/08/19 09:39:53;;;;;;;47.15;33.47;;;;;;;24.75;66.72;100978.88;4920594;28;122978;-80
2022/08/19 09:42:19;;;;;;;50.88;34.83;;;;;;;24.91;67.42;100982.63;4928260;28;122530;-80
2022/08/19 09:44:45;;;;;;;45.00;31.92;;;;;;;25.11;67.04;100983.22;4913187;28;126001;-80
2022/08/19 09:47:13;;;;;;;46.87;31.97;;;;;;;25.26;65.62;100983.38;4937201;28;123287;-80
2022/08/19 09:49:40;;;;;;;44.60;32.15;;;;;;;25.33;66.31;100986.28;4934901;28;123008;-80
2022/08/19 09:52:08;;;;;;;44.00;31.88;;;;;;;25.45;64.98;100991.59;4938159;28;125590;-81
2022/08/19 09:54:34;;;;;;;44.57;31.63;;;;;;;25.52;65.55;100986.06;4936373;28;123337;-81
2022/08/19 09:57:00;;;;;;;44.28;31.17;;;;;;;25.61;63.84;100979.97;4935424;28;125557;-81
2022/08/19 09:59:27;;;;;;;43.13;29.67;;;;;;;25.55;64.39;100984.97;4922519;28;126495;-82
2022/08/19 10:01:53;;;;;;;44.65;30.38;;;;;;;25.51;64.44;100984.53;4922548;28;122950;-82
2022/08/19 10:04:22;;;;;;;41.28;29.20;;;;;;;25.48;63.90;100994.06;4926721;28;124766;-81
2022/08/19 10:06:49;;;;;;;47.10;29.73;;;;;;;25.42;64.00;100998.31;4942714;28;122317;-81
2022/08/19 10:09:16;;;;;;;43.35;28.10;;;;;;;25.38;64.93;100996.63;4938067;28;122752;-83
2022/08/19 10:11:49;;;;;;;43.00;28.13;;;;;;;25.38;65.03;100995.84;4940126;28;122445;-82
2022/08/19 10:14:16;;;;;;;43.88;29.15;;;;;;;25.37;65.25;100988.75;4923722;28;123202;-82
2022/08/19 10:16:42;;;;;;;45.88;29.45;;;;;;;25.34;65.05;100984.22;4938705;28;125966;-81
2022/08/19 10:19:09;;;;;;;42.70;28.65;;;;;;;25.35;65.29;100989.28;4908882;28;125708;-81
2022/08/19 10:21:35;;;;;;;41.22;27.55;;;;;;;25.29;65.01;100979.47;4906534;28;122835;-82
2022/08/19 10:24:05;;;;;;;43.53;27.95;;;;;;;25.23;65.00;100981.66;4936632;28;122702;-82
2022/08/19 10:26:36;;;;;;;44.65;29.02;;;;;;;25.25;64.60;100991.03;4942263;28;126647;-81
2022/08/19 10:29:04;;;;;;;38.30;26.60;;;;;;;25.21;65.33;100995.50;4939441;28;125520;-81
2022/08/19 10:31:32;;;;;;;40.72;28.20;;;;;;;25.15;65.07;100992.81;4924726;28;125441;-82
2022/08/19 10:33:59;;;;;;;42.30;27.52;;;;;;;25.12;65.71;100987.56;4937016;28;122461;-82
2022/08/19 10:36:28;;;;;;;41.88;28.40;;;;;;;25.14;65.90;100984.94;4922249;28;124649;-82
2022/08/19 10:38:59;;;;;;;44.65;29.23;;;;;;;25.19;65.59;100979.19;4903856;28;127254;-82
2022/08/19 10:41:29;;;;;;;42.10;28.38;;;;;;;25.22;65.38;100985.78;4923037;28;123010;-82
2022/08/19 10:43:58;;;;;;;44.53;31.23;;;;;;;25.22;65.85;100978.09;4940506;28;122435;-81
2022/08/19 10:46:25;;;;;;;38.72;27.48;;;;;;;25.28;65.51;100978.72;4924475;28;125933;-81
2022/08/19 10:48:52;;;;;;;37.50;28.23;;;;;;;25.33;64.86;100980.66;4929529;28;122940;-81
2022/08/19 10:54:04;;;;;;;41.40;28.55;;;;;;;25.15;64.56;100978.03;4941712;28;122148;-81
2022/08/19 10:59:17;;;;;;;39.45;27.27;;;;;;;25.09;66.05;100972.56;4943348;28;122980;-82
2022/08/19 11:01:44;;;;;;;37.88;26.05;;;;;;;25.12;66.21;100977.06;4943338;28;123241;-82
2022/08/19 11:04:13;;;;;;;36.72;26.90;;;;;;;25.13;65.57;100967.34;4942645;28;124168;-82
2022/08/19 11:06:43;;;;;;;41.38;26.80;;;;;;;25.19;65.59;100970.03;4926815;28;125854;-81
2022/08/19 11:09:10;;;;;;;36.58;28.10;;;;;;;25.16;64.73;100969.06;4943337;28;122565;-82
2022/08/19 11:11:39;;;;;;;37.70;27.17;;;;;;;25.17;65.33;100972.63;4942906;28;125278;-81
2022/08/19 11:14:07;;;;;;;37.40;26.23;;;;;;;25.22;65.33;100963.31;4941963;28;122358;-81
2022/08/19 11:16:32;;;;;;;34.95;26.08;;;;;;;25.26;65.31;100964.47;4926489;28;124585;-81
2022/08/19 11:18:58;;;;;;;33.53;24.45;;;;;;;25.38;65.47;100970.59;4910181;28;127644;-81
2022/08/19 11:21:26;;;;;;;31.90;24.38;;;;;;;25.38;65.20;100964.97;4942247;28;122931;-81
2022/08/19 11:23:55;;;;;;;36.42;25.88;;;;;;;25.50;65.34;100969.00;4926302;28;124508;-82
2022/08/19 11:26:22;;;;;;;35.00;25.42;;;;;;;25.53;64.65;100959.47;4924220;28;125624;-82
2022/08/19 11:28:51;;;;;;;33.72;25.70;;;;;;;25.54;63.68;100965.84;4924010;28;122452;-82